Time;durP1;ratioP1;P1;durP2;ratioP2;P2;SDS_P1;SDS_P2;PMS_P1;PMS_P2;Temp;Humidity;BMP_temperature;BMP_pressure;BME280_temperature;BME280_humidity;BME280_pressure;Samples;Min_cycle;Max_cycle;Signal;HPM_P1;HPM_P2
2022/09/09 00:02:00;;;;;;;1.90;0.90;;;;;;;22.79;42.77;99135.56;6084668;23;20161;-96
2022/09/09 00:04:32;;;;;;;2.27;1.10;;;;;;;22.74;42.87;99148.56;6062758;23;20171;-96
2022/09/09 00:07:03;;;;;;;3.97;1.07;;;;;;;22.77;42.60;99160.75;6063315;23;20154;-96
2022/09/09 00:09:37;;;;;;;2.30;1.10;;;;;;;22.82;42.27;99174.47;6060581;23;20165;-96
2022/09/09 00:12:34;;;;;;;2.13;0.90;;;;;;;22.83;42.01;99162.78;6064219;23;20157;-96
2022/09/09 00:15:05;;;;;;;3.33;0.90;;;;;;;22.85;42.24;99160.81;6059480;23;20212;-96
2022/09/09 00:17:48;;;;;;;1.43;0.80;;;;;;;22.92;42.10;99169.88;6049997;23;20176;-96
2022/09/09 00:20:31;;;;;;;1.60;0.80;;;;;;;23.12;41.65;99179.34;6047439;23;20486;-95
2022/09/09 00:23:06;;;;;;;6.37;1.27;;;;;;;23.23;41.45;99176.41;6048284;23;20145;-96
2022/09/09 00:25:58;;;;;;;2.40;0.90;;;;;;;23.25;41.79;99177.06;6049841;23;20149;-96
2022/09/09 00:28:27;;;;;;;1.17;0.50;;;;;;;23.19;42.09;99178.53;6047735;23;20145;-96
2022/09/09 00:30:54;;;;;;;1.70;0.83;;;;;;;23.14;42.28;99172.00;6048729;23;20161;-96
2022/09/09 00:33:23;;;;;;;1.23;0.80;;;;;;;23.04;42.27;99163.25;6050788;23;20153;-96
2022/09/09 00:35:56;;;;;;;4.30;0.77;;;;;;;22.87;41.63;99156.97;6057579;23;20153;-96
2022/09/09 00:38:33;;;;;;;1.57;0.90;;;;;;;22.76;41.88;99157.25;6053973;23;20263;-96
2022/09/09 00:41:22;;;;;;;1.93;0.80;;;;;;;22.84;41.78;99156.44;6048969;23;20153;-96
2022/09/09 00:44:04;;;;;;;2.20;0.90;;;;;;;22.88;41.77;99165.81;6046781;23;20164;-96
2022/09/09 00:46:49;;;;;;;2.53;0.80;;;;;;;22.93;41.86;99158.19;6046309;23;20570;-96
2022/09/09 00:49:40;;;;;;;2.27;0.90;;;;;;;23.02;41.24;99160.75;6048086;23;20149;-96
2022/09/09 00:52:36;;;;;;;1.60;0.60;;;;;;;22.99;41.28;99165.56;6046808;23;20157;-96
2022/09/09 00:55:09;;;;;;;3.30;1.20;;;;;;;22.92;41.57;99170.72;6045470;23;20259;-96
2022/09/09 00:57:36;;;;;;;1.73;0.70;;;;;;;22.88;41.95;99169.34;6045555;23;20501;-96
2022/09/09 01:00:28;;;;;;;1.03;0.53;;;;;;;22.75;42.30;99171.59;6046146;23;20161;-96
2022/09/09 01:03:03;;;;;;;3.23;1.00;;;;;;;22.76;41.76;99173.28;6045775;23;20244;-96
2022/09/09 01:05:38;;;;;;;2.10;0.67;;;;;;;22.66;42.55;99179.72;6046896;23;20166;-96
2022/09/09 01:08:13;;;;;;;2.43;0.80;;;;;;;22.59;43.02;99185.63;6046811;23;20149;-96
2022/09/09 01:10:53;;;;;;;1.67;0.60;;;;;;;22.50;43.04;99185.75;6046789;23;20153;-96
2022/09/09 01:13:30;;;;;;;4.23;1.00;;;;;;;22.43;42.87;99187.34;6046614;23;20153;-96
2022/09/09 01:15:59;;;;;;;2.47;0.90;;;;;;;22.33;43.38;99183.91;6046566;23;20487;-96
2022/09/09 01:18:30;;;;;;;2.73;1.20;;;;;;;22.23;43.25;99181.31;6049417;23;20688;-96
2022/09/09 01:21:41;;;;;;;2.03;0.87;;;;;;;22.22;43.40;99193.00;6047434;23;20165;-96
2022/09/09 01:24:28;;;;;;;1.67;0.60;;;;;;;22.25;43.86;99187.34;6009029;23;20153;-96
2022/09/09 01:27:02;;;;;;;2.53;1.30;;;;;;;22.19;44.29;99198.66;6047040;23;20163;-96
2022/09/09 01:29:31;;;;;;;3.23;0.80;;;;;;;22.14;44.94;99192.94;6046016;23;20165;-96
2022/09/09 01:31:57;;;;;;;3.40;0.90;;;;;;;22.13;44.02;99196.59;6045667;23;20165;-95
2022/09/09 01:34:27;;;;;;;1.27;0.50;;;;;;;22.08;43.48;99193.53;6046164;23;20161;-96
2022/09/09 01:37:07;;;;;;;2.33;0.90;;;;;;;22.02;43.56;99196.81;6048835;23;20181;-96
2022/09/09 01:39:38;;;;;;;1.47;0.53;;;;;;;21.91;44.49;99194.34;6048815;23;20177;-96
2022/09/09 01:42:06;;;;;;;3.60;1.00;;;;;;;21.92;44.56;99196.03;6048809;23;20168;-96
2022/09/09 01:44:32;;;;;;;2.60;0.60;;;;;;;21.90;44.50;99182.00;6050692;23;20154;-96
2022/09/09 01:46:58;;;;;;;2.23;0.70;;;;;;;21.86;44.70;99185.94;6055014;23;20236;-96
2022/09/09 01:49:24;;;;;;;4.03;1.30;;;;;;;21.80;44.54;99181.19;6054961;23;20185;-96
2022/09/09 01:51:55;;;;;;;2.53;1.00;;;;;;;21.79;44.14;99179.50;6055490;23;20149;-96
2022/09/09 01:54:24;;;;;;;1.93;0.70;;;;;;;21.70;44.91;99183.06;6053227;23;20169;-96
2022/09/09 01:57:27;;;;;;;5.00;0.80;;;;;;;21.65;45.59;99188.00;6047940;23;20177;-96
2022/09/09 02:00:10;;;;;;;4.33;1.00;;;;;;;21.64;45.70;99186.34;6024895;23;20152;-95
2022/09/09 02:02:58;;;;;;;1.70;0.83;;;;;;;21.60;45.65;99190.28;6045381;23;20197;-96
2022/09/09 02:05:45;;;;;;;1.30;0.90;;;;;;;21.57;45.89;99206.59;6045617;23;20157;-96
2022/09/09 02:08:20;;;;;;;2.03;1.10;;;;;;;21.55;45.74;99196.06;6045024;23;20220;-95
2022/09/09 02:11:14;;;;;;;1.50;0.70;;;;;;;21.40;45.94;99208.22;6044653;23;20149;-95
2022/09/09 02:13:42;;;;;;;2.93;0.80;;;;;;;21.22;46.75;99196.66;6044773;23;20184;-95
2022/09/09 02:16:36;;;;;;;2.20;0.87;;;;;;;21.15;46.97;99196.38;6044767;23;20239;-96
2022/09/09 02:19:25;;;;;;;2.20;0.90;;;;;;;21.12;46.95;99191.34;6044635;23;20243;-95
2022/09/09 02:21:53;;;;;;;2.27;0.77;;;;;;;21.13;46.91;99197.50;6044752;23;20157;-96
2022/09/09 02:24:19;;;;;;;2.63;1.07;;;;;;;21.16;47.10;99203.41;6044509;23;20203;-96
2022/09/09 02:26:47;;;;;;;3.20;0.93;;;;;;;21.22;46.40;99194.00;6044481;23;20157;-95
2022/09/09 02:29:20;;;;;;;3.53;1.13;;;;;;;21.15;46.76;99196.38;6044443;23;20166;-95
2022/09/09 02:31:48;;;;;;;3.17;1.30;;;;;;;21.10;46.97;99198.66;6045940;23;20157;-96
2022/09/09 02:34:19;;;;;;;3.53;0.97;;;;;;;21.10;46.88;99193.31;6047450;23;20153;-96
2022/09/09 02:36:46;;;;;;;2.60;1.00;;;;;;;21.01;46.98;99188.00;6045816;23;20192;-96
2022/09/09 02:39:13;;;;;;;1.83;0.90;;;;;;;20.90;47.38;99181.00;6044687;23;20161;-96
2022/09/09 02:41:40;;;;;;;3.83;1.23;;;;;;;20.84;48.11;99193.09;6046014;23;20470;-96
2022/09/09 02:44:16;;;;;;;8.27;1.00;;;;;;;20.84;48.15;99182.44;6047973;23;20248;-96
2022/09/09 02:47:10;;;;;;;3.60;0.83;;;;;;;20.82;47.91;99184.41;6047695;23;20227;-95
2022/09/09 02:50:08;;;;;;;1.90;0.90;;;;;;;20.84;47.53;99186.91;6044219;23;20195;-96
2022/09/09 02:52:42;;;;;;;2.60;1.13;;;;;;;20.79;47.64;99176.69;6069431;23;20137;-96
2022/09/09 02:55:45;;;;;;;6.90;1.27;;;;;;;20.67;48.15;99179.66;6044468;23;20235;-95
2022/09/09 02:58:16;;;;;;;5.33;1.07;;;;;;;20.65;47.86;99171.81;6024981;23;20184;-96
2022/09/09 03:00:45;;;;;;;6.23;1.10;;;;;;;20.58;47.95;99175.19;6046341;23;20173;-96
2022/09/09 03:03:12;;;;;;;1.57;0.90;;;;;;;20.58;47.72;99184.00;6046009;23;20161;-96
2022/09/09 03:05:40;;;;;;;2.80;1.17;;;;;;;20.56;48.42;99182.47;6044764;23;20153;-96
2022/09/09 03:08:05;;;;;;;1.73;0.90;;;;;;;20.46;48.77;99182.50;6044149;23;20156;-95
2022/09/09 03:10:32;;;;;;;2.83;1.17;;;;;;;20.42;49.11;99172.25;6044129;23;20161;-96
2022/09/09 03:12:58;;;;;;;1.93;1.00;;;;;;;20.44;48.67;99173.78;6043929;23;20461;-95
2022/09/09 03:15:23;;;;;;;1.47;0.73;;;;;;;20.46;48.82;99171.84;6044337;23;20252;-96
2022/09/09 03:17:49;;;;;;;1.87;0.70;;;;;;;20.41;48.73;99173.25;6043914;23;20185;-95
2022/09/09 03:20:14;;;;;;;3.83;0.83;;;;;;;20.30;48.95;99168.91;6043815;23;20228;-94
2022/09/09 03:22:40;;;;;;;2.10;1.10;;;;;;;20.27;49.15;99166.53;6043839;23;20157;-94
2022/09/09 03:25:06;;;;;;;2.37;0.90;;;;;;;20.28;49.20;99167.38;6044100;23;20535;-94
2022/09/09 03:27:32;;;;;;;3.43;1.10;;;;;;;20.24;49.31;99158.81;6044317;23;20246;-96
2022/09/09 03:29:58;;;;;;;2.77;1.30;;;;;;;20.26;49.44;99164.03;6044177;23;20304;-95
2022/09/09 03:32:25;;;;;;;3.00;0.97;;;;;;;20.27;49.24;99163.03;6044020;23;20156;-94
2022/09/09 03:34:51;;;;;;;2.10;1.33;;;;;;;20.20;49.63;99168.06;6043947;23;20549;-95
2022/09/09 03:37:18;;;;;;;1.87;0.80;;;;;;;20.17;49.85;99171.84;6043944;23;20207;-95
2022/09/09 03:39:46;;;;;;;8.63;1.20;;;;;;;20.09;50.19;99169.03;6043983;23;20237;-96
2022/09/09 03:42:19;;;;;;;1.63;0.90;;;;;;;20.05;50.59;99177.41;6044567;23;20168;-95
2022/09/09 03:44:49;;;;;;;1.73;0.90;;;;;;;20.05;50.46;99178.25;6044781;23;20168;-95
2022/09/09 03:47:17;;;;;;;4.23;1.60;;;;;;;20.15;49.93;99184.41;6044515;23;20581;-95
2022/09/09 03:49:43;;;;;;;1.57;1.00;;;;;;;20.18;49.59;99184.13;6042326;23;20164;-95
2022/09/09 03:52:09;;;;;;;4.43;1.10;;;;;;;20.10;50.02;99186.66;6044196;23;20185;-95
2022/09/09 03:54:35;;;;;;;2.33;1.07;;;;;;;19.97;50.42;99194.06;6044173;23;20201;-95
2022/09/09 03:57:01;;;;;;;3.80;0.77;;;;;;;19.98;50.49;99176.28;6044577;23;20185;-95
2022/09/09 03:59:27;;;;;;;2.00;1.10;;;;;;;20.00;50.59;99187.63;6044428;23;20578;-95
2022/09/09 04:01:53;;;;;;;3.63;0.97;;;;;;;20.02;50.70;99186.50;6044469;23;20159;-95
2022/09/09 04:04:19;;;;;;;1.97;1.00;;;;;;;20.01;50.93;99198.16;6043977;23;20165;-95
2022/09/09 04:06:46;;;;;;;2.30;0.90;;;;;;;19.92;50.80;99187.47;6044340;23;20172;-95
2022/09/09 04:09:11;;;;;;;1.23;0.70;;;;;;;19.92;52.57;99190.97;6045495;23;20157;-94
2022/09/09 04:11:37;;;;;;;2.87;1.00;;;;;;;19.86;53.05;99194.22;6047430;23;20168;-95
2022/09/09 04:14:05;;;;;;;3.93;1.10;;;;;;;19.84;52.39;99198.81;6050100;23;20153;-95
2022/09/09 04:16:32;;;;;;;2.50;1.20;;;;;;;19.84;52.27;99193.50;6049651;23;20157;-95
2022/09/09 04:18:59;;;;;;;4.97;1.30;;;;;;;19.84;52.51;99201.47;6047397;23;20188;-95
2022/09/09 04:21:25;;;;;;;3.70;1.33;;;;;;;19.87;52.71;99208.34;6046006;23;20157;-95
2022/09/09 04:23:51;;;;;;;2.50;1.30;;;;;;;19.93;52.64;99205.13;6045601;23;20199;-94
2022/09/09 04:26:17;;;;;;;2.03;0.77;;;;;;;19.98;52.69;99209.06;6045744;23;20161;-95
2022/09/09 04:28:42;;;;;;;2.90;1.00;;;;;;;20.02;53.00;99207.78;6045886;23;20153;-94
2022/09/09 04:31:11;;;;;;;2.63;0.93;;;;;;;20.07;52.59;99213.53;6045097;23;20190;-95
2022/09/09 04:33:38;;;;;;;5.37;1.30;;;;;;;20.08;52.27;99212.56;6045699;23;20229;-95
2022/09/09 04:36:03;;;;;;;2.37;0.90;;;;;;;20.12;51.77;99210.50;6045392;23;20157;-95
2022/09/09 04:38:29;;;;;;;4.53;1.10;;;;;;;20.08;52.14;99212.56;6045466;23;20180;-95
2022/09/09 04:40:54;;;;;;;3.33;1.10;;;;;;;20.08;52.83;99214.38;6045559;23;20584;-96
2022/09/09 04:43:22;;;;;;;1.70;0.90;;;;;;;19.96;53.55;99208.38;6045628;23;20160;-95
2022/09/09 04:45:49;;;;;;;4.10;1.73;;;;;;;19.95;53.71;99213.81;6045772;23;20183;-95
2022/09/09 04:48:15;;;;;;;2.97;1.27;;;;;;;20.01;53.93;99219.44;6045637;23;20153;-95
2022/09/09 04:50:40;;;;;;;3.80;0.70;;;;;;;20.10;53.61;99218.59;6045716;23;20172;-95
2022/09/09 04:53:07;;;;;;;1.73;0.90;;;;;;;20.23;53.44;99211.22;6045560;23;20187;-95
2022/09/09 04:55:34;;;;;;;4.60;1.30;;;;;;;20.31;53.87;99225.66;6045151;23;20177;-95
2022/09/09 04:58:08;;;;;;;1.90;0.90;;;;;;;20.34;53.69;99225.38;6045280;23;20184;-95
2022/09/09 05:00:35;;;;;;;3.03;1.10;;;;;;;20.40;53.12;99225.66;6045211;23;20161;-95
2022/09/09 05:03:08;;;;;;;4.73;1.13;;;;;;;20.47;52.83;99217.94;6045204;23;20156;-95
2022/09/09 05:05:34;;;;;;;1.57;0.97;;;;;;;20.54;52.45;99219.06;6045390;23;20156;-95
2022/09/09 05:08:08;;;;;;;3.90;1.07;;;;;;;20.58;52.69;99209.81;6045404;23;20160;-96
2022/09/09 05:10:36;;;;;;;4.73;1.10;;;;;;;20.61;52.53;99209.53;6045546;23;20495;-95
2022/09/09 05:13:01;;;;;;;3.70;1.47;;;;;;;20.75;52.98;99203.78;6045459;23;20169;-96
2022/09/09 05:15:27;;;;;;;5.73;1.67;;;;;;;20.84;52.85;99198.41;6045143;23;20604;-95
2022/09/09 05:17:57;;;;;;;8.30;1.60;;;;;;;21.00;52.61;99200.47;6045164;23;20185;-96
2022/09/09 05:20:22;;;;;;;4.47;1.33;;;;;;;21.19;52.51;99203.13;6045341;23;20157;-96
2022/09/09 05:22:49;;;;;;;11.37;1.50;;;;;;;21.34;52.32;99196.31;6046049;23;20232;-96
2022/09/09 05:25:14;;;;;;;4.03;1.33;;;;;;;21.46;52.21;99204.13;6045898;23;20164;-94
2022/09/09 05:27:40;;;;;;;6.60;1.57;;;;;;;21.59;51.63;99204.63;6045307;23;20153;-95
2022/09/09 05:30:06;;;;;;;2.23;0.90;;;;;;;21.69;50.94;99216.09;6045404;23;20601;-95
2022/09/09 05:32:34;;;;;;;2.13;1.17;;;;;;;21.79;49.89;99214.19;6045251;23;20153;-94
2022/09/09 05:35:01;;;;;;;2.90;1.27;;;;;;;21.85;50.08;99211.78;6046048;23;20161;-95
2022/09/09 05:37:26;;;;;;;2.80;1.37;;;;;;;22.03;50.04;99203.84;6045455;23;20184;-95
2022/09/09 05:39:53;;;;;;;5.23;1.77;;;;;;;22.10;50.55;99204.06;6045612;23;20172;-96
2022/09/09 05:42:18;;;;;;;3.40;1.50;;;;;;;22.21;50.12;99196.66;6045758;23;20248;-95
2022/09/09 05:44:44;;;;;;;3.77;2.00;;;;;;;22.13;50.02;99209.94;6045696;23;20203;-96
2022/09/09 05:47:10;;;;;;;5.53;1.67;;;;;;;22.17;50.18;99208.63;6045753;23;20157;-96
2022/09/09 05:49:36;;;;;;;3.63;1.57;;;;;;;22.34;49.32;99204.28;6045517;23;20165;-96
2022/09/09 05:52:03;;;;;;;3.57;1.20;;;;;;;22.48;49.54;99207.25;6045325;23;20160;-95
2022/09/09 05:54:29;;;;;;;4.23;1.87;;;;;;;22.58;49.04;99210.69;6046052;23;20169;-96
2022/09/09 05:56:55;;;;;;;4.13;1.80;;;;;;;22.78;48.86;99210.53;6045696;23;20680;-96
2022/09/09 05:59:23;;;;;;;4.77;2.00;;;;;;;22.85;48.01;99209.75;6045814;23;20157;-95
2022/09/09 06:01:48;;;;;;;3.73;1.40;;;;;;;22.87;48.11;99196.22;6045171;23;20157;-95
2022/09/09 06:04:15;;;;;;;3.97;1.70;;;;;;;22.94;48.31;99200.78;6046128;23;20571;-96
2022/09/09 06:06:41;;;;;;;5.50;2.00;;;;;;;23.07;48.04;99205.72;6045153;23;20165;-95
2022/09/09 06:09:09;;;;;;;5.40;1.53;;;;;;;23.13;47.41;99210.44;6045265;23;20236;-95
2022/09/09 06:11:39;;;;;;;7.97;2.20;;;;;;;23.24;47.64;99207.50;6045622;23;20189;-96
2022/09/09 06:14:06;;;;;;;7.63;2.33;;;;;;;23.39;47.04;99213.97;6046865;23;20157;-96
2022/09/09 06:16:32;;;;;;;3.73;1.70;;;;;;;23.45;46.93;99216.00;6047560;23;20227;-96
2022/09/09 06:19:03;;;;;;;6.23;1.97;;;;;;;23.57;47.54;99217.38;6045999;23;20197;-95
2022/09/09 06:21:40;;;;;;;7.20;2.37;;;;;;;23.77;46.58;99215.28;6045882;23;20625;-95
2022/09/09 06:24:07;;;;;;;5.00;1.77;;;;;;;23.99;46.73;99219.19;6045446;23;20547;-95
2022/09/09 06:26:40;;;;;;;6.60;1.70;;;;;;;24.13;45.64;99221.28;6046071;23;20177;-96
2022/09/09 06:29:06;;;;;;;4.83;2.00;;;;;;;24.51;45.78;99215.28;6044295;23;20149;-96
2022/09/09 06:31:34;;;;;;;5.67;1.87;;;;;;;24.73;45.15;99217.31;6044579;23;20604;-94
2022/09/09 06:34:02;;;;;;;9.23;2.77;;;;;;;24.83;44.61;99203.75;6044108;23;20204;-95
2022/09/09 06:36:30;;;;;;;6.67;2.20;;;;;;;25.10;44.63;99211.44;6044561;23;20192;-95
2022/09/09 06:38:56;;;;;;;5.93;2.17;;;;;;;25.27;43.98;99213.06;6045485;23;20227;-96
2022/09/09 06:41:26;;;;;;;8.70;2.20;;;;;;;25.41;44.23;99212.38;6045176;23;20157;-96
2022/09/09 06:44:05;;;;;;;7.60;2.23;;;;;;;25.80;43.58;99219.63;6047987;23;20157;-96
2022/09/09 06:46:35;;;;;;;4.40;2.00;;;;;;;25.99;41.67;99205.75;6047381;23;20145;-95
2022/09/09 06:49:32;;;;;;;7.07;2.17;;;;;;;26.30;41.70;99205.75;6048872;23;20185;-96
2022/09/09 06:52:46;;;;;;;3.20;1.73;;;;;;;26.82;41.41;99204.00;6042204;23;20161;-96
2022/09/09 06:55:33;;;;;;;5.20;2.00;;;;;;;27.13;40.62;99199.31;6064513;23;20212;-96
2022/09/09 07:05:17;;;;;;;4.38;1.83;;;;;;;28.18;37.65;99191.81;6040964;23;20247;-96
2022/09/09 07:07:43;;;;;;;3.20;1.65;;;;;;;28.54;36.84;99187.19;6047453;23;20554;-96
2022/09/09 07:10:11;;;;;;;6.13;1.70;;;;;;;28.80;37.47;99195.53;6049657;23;20157;-96
2022/09/09 07:12:39;;;;;;;4.38;1.80;;;;;;;29.20;35.89;99200.25;6047905;23;20249;-96
2022/09/09 07:15:05;;;;;;;2.88;1.67;;;;;;;29.56;35.47;99200.03;6047608;23;20596;-96
2022/09/09 07:18:14;;;;;;;3.38;1.45;;;;;;;29.76;36.08;99197.44;6046845;23;20181;-96
2022/09/09 07:20:38;;;;;;;2.60;1.45;;;;;;;30.05;36.00;99201.72;6065320;23;20200;-95
2022/09/09 07:23:04;;;;;;;3.58;1.52;;;;;;;30.18;34.33;99190.94;6046600;23;20228;-96
2022/09/09 07:26:38;;;;;;;1.95;1.05;;;;;;;30.31;33.71;99197.22;6051000;23;20211;-96
2022/09/09 07:29:09;;;;;;;2.20;1.30;;;;;;;30.46;34.28;99188.94;5981861;23;20157;-96
2022/09/09 07:32:26;;;;;;;;;;;;;;;;;;;;;
2022/09/09 07:35:44;;;;;;;2.63;1.38;;;;;;;31.17;33.46;99184.59;6077019;23;20181;-96
2022/09/09 07:38:21;;;;;;;3.25;1.67;;;;;;;31.33;33.63;99192.28;6063339;23;20205;-96
2022/09/09 07:45:38;;;;;;;;;;;;;;;;;;;;;
2022/09/09 07:48:43;;;;;;;2.72;1.30;;;;;;;31.49;32.35;99207.25;5937763;24;20219;-96
2022/09/09 08:00:02;;;;;;;3.08;1.67;;;;;;;31.89;32.94;99213.38;5748723;25;20748;-95
2022/09/09 08:03:26;;;;;;;;;;;;;;;;;;;;;
2022/09/09 08:05:51;;;;;;;3.50;1.40;;;;;;;31.88;31.58;99212.53;5730351;24;20208;-96
2022/09/09 08:08:20;;;;;;;4.47;1.83;;;;;;;31.61;32.57;99217.22;5870435;24;20161;-96
2022/09/09 08:10:50;;;;;;;4.68;1.25;;;;;;;31.88;32.67;99199.00;6008464;23;20169;-96
2022/09/09 08:13:41;;;;;;;3.20;1.60;;;;;;;32.06;32.00;99180.16;6023339;23;20150;-96
2022/09/09 08:16:31;;;;;;;;;;;;;;;;;;;;;
2022/09/09 08:19:21;;;;;;;2.95;1.27;;;;;;;32.01;32.53;99184.56;6048192;23;20261;-96
2022/09/09 08:21:46;;;;;;;2.45;1.60;;;;;;;32.17;31.72;99187.59;6020770;23;20248;-96
2022/09/09 08:24:24;;;;;;;1.88;1.27;;;;;;;32.39;32.06;99188.06;6022549;23;20173;-96
2022/09/09 08:26:53;;;;;;;2.78;1.65;;;;;;;32.50;31.99;99172.97;6018913;23;20149;-96
2022/09/09 08:29:30;;;;;;;2.92;1.42;;;;;;;32.62;30.84;99165.81;6021548;23;20153;-96
2022/09/09 08:32:51;;;;;;;;;;;;;;;;;;;;;
2022/09/09 08:35:50;;;;;;;;;;;;;;;;;;;;;
2022/09/09 08:38:16;;;;;;;2.95;1.77;;;;;;;32.67;31.13;99153.25;6012648;23;20610;-96
2022/09/09 08:40:49;;;;;;;3.72;2.13;;;;;;;32.75;31.00;99161.13;6041472;23;20181;-95
2022/09/09 08:43:17;;;;;;;4.57;1.80;;;;;;;32.76;31.12;99151.06;6018477;23;20466;-96
2022/09/09 08:46:35;;;;;;;3.28;1.80;;;;;;;32.98;31.68;99146.91;6019936;23;20217;-96
2022/09/09 08:49:06;;;;;;;3.17;1.60;;;;;;;32.69;31.75;99136.72;6041508;23;20161;-96
2022/09/09 08:51:49;;;;;;;;;;;;;;;;;;;;;
2022/09/09 08:54:15;;;;;;;5.07;1.83;;;;;;;32.70;32.47;99132.97;6044952;23;20603;-96
2022/09/09 08:57:11;;;;;;;2.90;1.67;;;;;;;32.79;31.68;99127.03;6027627;23;20173;-95
2022/09/09 08:59:37;;;;;;;5.45;2.20;;;;;;;32.80;31.03;99125.16;6046627;23;20161;-95
2022/09/09 09:02:45;;;;;;;3.47;1.38;;;;;;;32.98;31.39;99119.75;6050951;23;20157;-96
2022/09/09 09:05:57;;;;;;;4.03;1.38;;;;;;;33.14;31.87;99121.06;6052550;23;20150;-96
2022/09/09 09:08:55;;;;;;;3.15;1.85;;;;;;;33.21;31.12;99103.63;6048157;23;20149;-96
2022/09/09 09:11:23;;;;;;;3.17;1.80;;;;;;;33.30;31.06;99107.72;6010295;23;20593;-96
2022/09/09 09:13:57;;;;;;;3.45;1.48;;;;;;;33.53;29.54;99103.47;6045739;23;20150;-96
2022/09/09 09:16:29;;;;;;;4.13;2.13;;;;;;;33.23;30.41;99112.38;6047618;23;20557;-96
2022/09/09 09:18:54;;;;;;;3.22;1.58;;;;;;;33.22;30.60;99108.03;6045755;23;20174;-95
2022/09/09 09:21:52;;;;;;;2.47;1.27;;;;;;;33.51;31.21;99094.72;6045094;23;20172;-95
2022/09/09 09:24:27;;;;;;;4.32;2.05;;;;;;;33.69;30.94;99100.13;5993197;23;20213;-95
2022/09/09 09:26:53;;;;;;;3.55;1.50;;;;;;;33.58;29.26;99093.59;6045316;23;20152;-96
2022/09/09 09:29:21;;;;;;;2.67;1.30;;;;;;;33.63;29.52;99090.19;6046557;23;20235;-96
2022/09/09 09:31:56;;;;;;;3.03;1.23;;;;;;;33.65;29.18;99080.72;6045351;23;20157;-96
2022/09/09 09:34:24;;;;;;;3.92;1.67;;;;;;;33.37;30.08;99085.88;6045371;23;20160;-96
2022/09/09 09:37:20;;;;;;;3.47;1.27;;;;;;;33.73;29.63;99082.28;6045811;23;20585;-96
2022/09/09 09:39:45;;;;;;;2.63;0.98;;;;;;;33.78;29.04;99077.81;6049590;23;20155;-94
2022/09/09 09:42:17;;;;;;;5.00;1.60;;;;;;;33.94;29.42;99076.34;6045043;23;20543;-96
2022/09/09 09:44:43;;;;;;;2.70;1.15;;;;;;;34.18;28.98;99080.81;6045455;23;20161;-96
2022/09/09 09:47:18;;;;;;;2.38;1.50;;;;;;;34.02;28.02;99081.44;6045545;23;20312;-96
2022/09/09 09:49:55;;;;;;;2.50;1.35;;;;;;;34.40;29.68;99072.94;6046392;23;20192;-96
2022/09/09 09:52:28;;;;;;;2.40;1.10;;;;;;;34.49;27.83;99066.88;6047911;23;20153;-95
2022/09/09 09:54:55;;;;;;;2.67;1.40;;;;;;;34.73;26.69;99056.03;6045887;23;20548;-96
2022/09/09 09:57:32;;;;;;;1.20;0.80;;;;;;;34.82;27.24;99066.34;6045171;23;20263;-95
2022/09/09 10:00:13;;;;;;;2.40;1.35;;;;;;;34.28;27.26;99064.75;6045016;23;20152;-96
2022/09/09 10:02:42;;;;;;;3.33;1.10;;;;;;;33.98;28.42;99051.19;6045806;23;20582;-96
2022/09/09 10:05:24;;;;;;;3.25;1.38;;;;;;;33.99;28.25;99046.53;6046472;23;20161;-96
2022/09/09 10:08:11;;;;;;;1.55;0.85;;;;;;;34.62;27.62;99049.50;6045575;23;20153;-96
2022/09/09 10:10:46;;;;;;;3.38;1.05;;;;;;;34.36;27.17;99034.44;6045226;23;20184;-95
2022/09/09 10:13:21;;;;;;;1.95;1.00;;;;;;;34.63;28.12;99039.47;6048036;23;20167;-96
2022/09/09 10:16:09;;;;;;;2.47;1.20;;;;;;;34.95;27.56;99035.28;6047679;23;20144;-96
2022/09/09 10:18:47;;;;;;;4.57;1.20;;;;;;;35.36;26.43;99026.91;6048563;23;20185;-96
2022/09/09 10:21:26;;;;;;;1.50;0.80;;;;;;;35.50;26.13;99025.56;6047126;23;20168;-96
2022/09/09 10:24:22;;;;;;;1.75;0.90;;;;;;;35.76;25.92;99024.16;6046906;23;20148;-96
2022/09/09 10:26:55;;;;;;;2.58;0.90;;;;;;;35.33;25.33;99024.66;6045933;23;20161;-96
2022/09/09 10:29:55;;;;;;;2.33;1.00;;;;;;;35.68;25.25;99017.19;6046796;23;20160;-96
2022/09/09 10:32:32;;;;;;;1.58;0.82;;;;;;;35.81;25.26;99016.06;6047714;23;20160;-96
2022/09/09 10:35:20;;;;;;;2.97;1.08;;;;;;;35.92;25.43;99009.72;6045312;23;20157;-95
2022/09/09 10:38:11;;;;;;;1.77;0.82;;;;;;;35.96;24.90;99013.59;6045111;23;20223;-96
2022/09/09 10:40:56;;;;;;;1.55;0.70;;;;;;;36.15;24.88;99012.31;6044533;23;20236;-96
2022/09/09 10:43:42;;;;;;;3.50;1.00;;;;;;;36.51;24.50;99008.25;6047269;23;20148;-96
2022/09/09 10:46:20;;;;;;;2.15;0.70;;;;;;;36.69;23.56;99012.63;6047197;23;20149;-96
2022/09/09 10:49:10;;;;;;;2.03;0.90;;;;;;;36.75;24.36;99001.50;6044553;23;20164;-96
2022/09/09 10:52:06;;;;;;;2.08;0.85;;;;;;;36.84;24.06;98994.53;6046475;23;20153;-96
2022/09/09 10:54:49;;;;;;;2.45;0.93;;;;;;;36.75;23.23;98995.19;6047536;23;20572;-95
2022/09/09 10:57:34;;;;;;;2.05;0.82;;;;;;;36.90;23.51;98988.03;6046848;23;20193;-95
2022/09/09 11:00:14;;;;;;;2.42;0.90;;;;;;;36.37;24.06;98983.16;6045012;23;20217;-96
2022/09/09 11:02:41;;;;;;;1.92;0.80;;;;;;;36.69;24.32;98988.03;6047374;23;20173;-95
2022/09/09 11:05:28;;;;;;;2.05;0.77;;;;;;;37.14;23.10;98985.88;6047070;23;20241;-95
2022/09/09 11:08:01;;;;;;;2.30;0.95;;;;;;;37.28;22.81;98970.75;6046797;23;20137;-96
2022/09/09 11:10:42;;;;;;;1.73;0.95;;;;;;;37.06;23.22;98966.38;6046001;23;20145;-95
2022/09/09 11:13:18;;;;;;;2.22;1.15;;;;;;;37.31;22.67;98964.78;6044888;23;20153;-96
2022/09/09 11:15:50;;;;;;;1.83;0.90;;;;;;;37.01;22.90;98956.22;6045395;23;20168;-96
2022/09/09 11:18:22;;;;;;;1.73;0.88;;;;;;;36.98;23.23;98955.91;6044269;23;20177;-94
2022/09/09 11:20:54;;;;;;;2.42;0.85;;;;;;;37.27;23.78;98944.47;6045449;23;20156;-95
2022/09/09 11:23:27;;;;;;;1.90;1.10;;;;;;;37.46;23.14;98931.28;6047841;23;20145;-96
2022/09/09 11:25:57;;;;;;;2.10;0.90;;;;;;;37.13;22.91;98936.94;6045576;23;20152;-94
2022/09/09 11:28:37;;;;;;;5.57;1.08;;;;;;;37.40;23.26;98937.75;6043937;23;20196;-95
2022/09/09 11:31:22;;;;;;;5.82;1.17;;;;;;;37.12;22.93;98938.03;6044248;23;20145;-92
2022/09/09 11:34:02;;;;;;;1.80;0.98;;;;;;;37.21;23.51;98931.03;6044300;23;20521;-95
2022/09/09 11:36:37;;;;;;;2.38;0.82;;;;;;;37.58;23.05;98940.16;6044572;23;20203;-95
2022/09/09 11:39:22;;;;;;;2.10;0.93;;;;;;;37.74;22.56;98936.47;6044334;23;20199;-95
2022/09/09 11:41:48;;;;;;;0.90;0.70;;;;;;;37.76;23.01;98936.22;6044671;23;20164;-96
2022/09/09 11:44:30;;;;;;;1.63;0.90;;;;;;;38.13;22.70;98935.16;6048261;23;20161;-96
2022/09/09 11:46:55;;;;;;;2.50;1.08;;;;;;;38.41;21.90;98924.97;6047894;23;20161;-95
2022/09/09 11:49:42;;;;;;;1.92;0.65;;;;;;;38.34;21.58;98933.41;6044741;23;20566;-96
2022/09/09 11:52:37;;;;;;;2.35;0.98;;;;;;;38.33;21.95;98928.22;6045832;23;20164;-95
2022/09/09 11:55:26;;;;;;;2.72;0.70;;;;;;;38.10;22.11;98916.53;6045152;23;20161;-95
2022/09/09 11:58:04;;;;;;;2.40;1.20;;;;;;;38.39;22.59;98913.47;6044464;23;20279;-94
2022/09/09 12:00:32;;;;;;;2.75;1.23;;;;;;;38.05;22.66;98913.75;6044672;23;20163;-94
2022/09/09 12:02:58;;;;;;;2.15;0.93;;;;;;;38.27;21.98;98912.78;6046040;23;20161;-96
2022/09/09 12:05:40;;;;;;;2.53;1.23;;;;;;;38.50;21.56;98909.66;6044247;23;20236;-95
2022/09/09 12:08:09;;;;;;;2.45;1.08;;;;;;;38.77;21.87;98895.84;6046900;23;20141;-96
2022/09/09 12:10:53;;;;;;;2.60;1.00;;;;;;;38.92;22.17;98899.44;6045961;23;20149;-96
2022/09/09 12:13:22;;;;;;;1.65;0.93;;;;;;;38.43;22.10;98882.53;6043782;23;20256;-95
2022/09/09 12:15:53;;;;;;;1.80;1.02;;;;;;;38.65;22.22;98874.97;6043612;23;20168;-95
2022/09/09 12:18:36;;;;;;;1.92;0.90;;;;;;;38.57;22.06;98870.00;6043823;23;20229;-92
2022/09/09 12:21:26;;;;;;;2.08;0.98;;;;;;;38.34;22.28;98872.34;6044019;23;20164;-96
2022/09/09 12:24:17;;;;;;;1.58;0.90;;;;;;;38.71;21.72;98867.56;6044113;23;20546;-95
2022/09/09 12:27:14;;;;;;;1.75;0.93;;;;;;;38.82;22.29;98871.19;5991513;23;20171;-95
2022/09/09 12:30:03;;;;;;;2.13;0.75;;;;;;;38.64;21.99;98869.72;6042956;23;20470;-93
2022/09/09 12:32:29;;;;;;;1.80;0.85;;;;;;;39.05;22.13;98862.47;6044756;23;20150;-95
2022/09/09 12:35:03;;;;;;;1.95;1.08;;;;;;;39.48;21.89;98859.28;6043644;23;20157;-95
2022/09/09 12:37:41;;;;;;;3.10;1.00;;;;;;;39.55;21.73;98856.22;6045506;23;20263;-95
2022/09/09 12:40:20;;;;;;;2.15;0.98;;;;;;;39.26;21.64;98843.06;6044401;23;20594;-95
2022/09/09 12:42:45;;;;;;;4.03;1.48;;;;;;;38.89;21.83;98842.44;6044713;23;20164;-95